| time (UTC) | temp F | wind direction | speed MPH | gust MPH | rain 1hr in | rain 24hr in | rain mn in | humidity % | barometer mb |
| 20260905203032 | 63 | 246 | 2.0 | 4.0 | 0.00 | 0.03 | 0.01 | 68 | 1018.9 |
| 20260905201611 | 62 | 218 | 2.0 | 4.0 | 0.00 | 0.03 | 0.01 | 69 | 1018.9 |
| 20260905200034 | 63 | 284 | 2.0 | 6.0 | 0.00 | 0.03 | 0.01 | 68 | 1019.0 |
| 20260905194536 | 62 | 327 | 2.0 | 6.0 | 0.00 | 0.03 | 0.01 | 71 | 1019.2 |
| 20260905193109 | 61 | 342 | 2.0 | 5.0 | 0.00 | 0.03 | 0.01 | 72 | 1019.2 |
| 20260905190153 | 61 | 327 | 3.0 | 7.0 | 0.00 | 0.03 | 0.01 | 73 | 1019.5 |
| 20260905184534 | 60 | 338 | 3.0 | 7.0 | 0.00 | 0.03 | 0.01 | 74 | 1019.8 |
| 20260905183036 | 60 | 334 | 3.0 | 7.0 | 0.00 | 0.03 | 0.01 | 77 | 1019.8 |
| 20260905181536 | 60 | 15 | 2.0 | 5.0 | 0.00 | 0.03 | 0.01 | 78 | 1020.0 |
| 20260905180033 | 58 | 351 | 1.0 | 4.0 | 0.00 | 0.03 | 0.01 | 83 | 1020.0 |
| 20260905174609 | 57 | 3 | 2.0 | 3.0 | 0.00 | 0.03 | 0.01 | 86 | 1020.0 |
| 20260905173045 | 56 | 45 | 1.0 | 3.0 | 0.00 | 0.03 | 0.01 | 88 | 1020.0 |
| 20260905173036 | 55 | 44 | 1.0 | 4.0 | 0.00 | 0.03 | 0.01 | 90 | 1019.9 |
| 20260905170034 | 54 | 30 | 1.0 | 4.0 | 0.00 | 0.03 | 0.01 | 92 | 1019.9 |
| 20260905163110 | 53 | 22 | 1.0 | 2.0 | 0.00 | 0.03 | 0.01 | 94 | 1019.8 |
| 20260905161534 | 53 | 22 | 1.0 | 3.0 | 0.01 | 0.03 | 0.01 | 95 | 1019.8 |
| 20260905160034 | 53 | 29 | 1.0 | 3.0 | 0.01 | 0.03 | 0.01 | 97 | 1019.8 |
| 20260905154532 | 52 | 45 | 2.0 | 3.0 | 0.01 | 0.03 | 0.01 | 97 | 1019.8 |
| 20260905153036 | 51 | 83 | 1.0 | 3.0 | 0.01 | 0.03 | 0.00 | 98 | 1019.8 |
| 20260905151643 | 51 | 90 | 0.0 | 1.0 | 0.00 | 0.02 | 0.00 | 98 | 1019.8 |
| 20260905150036 | 51 | 90 | 0.0 | 3.0 | 0.00 | 0.02 | 0.00 | 98 | 1019.6 |
| 20260905144535 | 50 | 178 | 0.0 | 1.0 | 0.00 | 0.02 | 0.00 | 98 | 1019.5 |
| 20260905143035 | 50 | 109 | 0.0 | 2.0 | 0.00 | 0.02 | 0.00 | 98 | 1019.5 |
| 20260905141537 | 50 | 140 | 1.0 | 3.0 | 0.00 | 0.02 | 0.00 | 98 | 1019.4 |
| 20260905140034 | 49 | 206 | 0.0 | 2.0 | 0.00 | 0.02 | 0.00 | 98 | 1019.3 |
| 20260905134536 | 49 | 134 | 0.0 | 4.0 | 0.00 | 0.02 | 0.00 | 98 | 1019.1 |
| 20260905133034 | 49 | 202 | 0.0 | 2.0 | 0.00 | 0.02 | 0.00 | 98 | 1019.0 |
| 20260905131535 | 49 | 189 | 0.0 | 2.0 | 0.00 | 0.02 | 0.00 | 98 | 1018.9 |
| 20260905130110 | 50 | 144 | 0.0 | 3.0 | 0.00 | 0.02 | 0.00 | 98 | 1018.8 |
| 20260905124534 | 49 | 173 | 0.0 | 3.0 | 0.00 | 0.02 | 0.00 | 98 | 1018.9 |
| 20260905123035 | 49 | 180 | 0.0 | 1.0 | 0.00 | 0.02 | 0.00 | 98 | 1018.9 |
| 20260905121533 | 49 | 180 | 0.0 | 2.0 | 0.00 | 0.04 | 0.00 | 98 | 1019.0 |
| 20260905120034 | 49 | 180 | 1.0 | 3.0 | 0.00 | 0.04 | 0.00 | 97 | 1018.9 |
| 20260905114643 | 50 | 180 | 0.0 | 2.0 | 0.00 | 0.04 | 0.00 | 97 | 1018.8 |
| 20260905111537 | 50 | 175 | 2.0 | 3.0 | 0.00 | 0.04 | 0.00 | 97 | 1018.7 |
| 20260905110031 | 50 | 142 | 1.0 | 2.0 | 0.00 | 0.04 | 0.00 | 97 | 1018.7 |
| 20260905104611 | 50 | 137 | 0.0 | 3.0 | 0.00 | 0.04 | 0.00 | 97 | 1018.7 |
| 20260905103036 | 50 | 180 | 1.0 | 4.0 | 0.00 | 0.04 | 0.00 | 97 | 1018.6 |
| 20260905101532 | 51 | 165 | 1.0 | 4.0 | 0.00 | 0.04 | 0.00 | 97 | 1018.7 |
| 20260905100036 | 51 | 200 | 0.0 | 4.0 | 0.00 | 0.04 | 0.00 | 97 | 1018.7 |
| 20260905094534 | 51 | 202 | 1.0 | 3.0 | 0.00 | 0.04 | 0.00 | 96 | 1018.8 |
| 20260905093034 | 51 | 147 | 0.0 | 3.0 | 0.00 | 0.04 | 0.00 | 96 | 1018.8 |
| 20260905091535 | 51 | 135 | 1.0 | 2.0 | 0.00 | 0.04 | 0.00 | 96 | 1018.7 |
| 20260905084536 | 51 | 82 | 2.0 | 4.0 | 0.00 | 0.04 | 0.00 | 96 | 1018.7 |
| 20260905083035 | 51 | 163 | 0.0 | 3.0 | 0.00 | 0.04 | 0.00 | 96 | 1018.6 |
| 20260905080034 | 51 | 145 | 1.0 | 3.0 | 0.00 | 0.04 | 0.00 | 96 | 1018.3 |
| 20260905074536 | 51 | 123 | 2.0 | 4.0 | 0.00 | 0.04 | 0.00 | 95 | 1018.1 |
| 20260905071534 | 52 | 192 | 0.0 | 3.0 | 0.00 | 0.04 | 0.00 | 94 | 1018.1 |
| 20260905070032 | 52 | 188 | 0.0 | 2.0 | 0.00 | 0.04 | 0.00 | 93 | 1017.9 |
| 20260905064534 | 53 | 151 | 0.0 | 2.0 | 0.02 | 0.04 | 0.04 | 92 | 1017.7 |
| 20260905063035 | 53 | 128 | 1.0 | 5.0 | 0.02 | 0.04 | 0.04 | 91 | 1017.6 |
| 20260905061532 | 53 | 173 | 4.0 | 8.0 | 0.02 | 0.04 | 0.04 | 88 | 1017.7 |
| 20260905054536 | 53 | 176 | 2.0 | 5.0 | 0.00 | 0.02 | 0.02 | 88 | 1017.8 |
| 20260905053036 | 53 | 173 | 2.0 | 4.0 | 0.00 | 0.02 | 0.02 | 90 | 1017.6 |
| 20260905050110 | 53 | 180 | 1.0 | 2.0 | 0.00 | 0.02 | 0.02 | 89 | 1017.7 |
| 20260905044537 | 53 | 180 | 0.0 | 1.0 | 0.00 | 0.02 | 0.02 | 89 | 1017.7 |
| 20260905041536 | 52 | 180 | 0.0 | 0.0 | 0.00 | 0.02 | 0.02 | 93 | 1017.5 |
| 20260905040032 | 52 | 180 | 0.0 | 1.0 | 0.00 | 0.02 | 0.02 | 92 | 1017.4 |
| 20260905034611 | 53 | 180 | 1.0 | 3.0 | 0.00 | 0.02 | 0.02 | 91 | 1017.2 |
| 20260905033036 | 53 | 180 | 0.0 | 2.0 | 0.00 | 0.02 | 0.02 | 90 | 1017.0 |
| 20260905031535 | 54 | 180 | 0.0 | 4.0 | 0.00 | 0.02 | 0.02 | 89 | 1016.9 |
| 20260905030036 | 55 | 180 | 3.0 | 4.0 | 0.00 | 0.02 | 0.02 | 88 | 1016.8 |
| 20260905024536 | 56 | 180 | 2.0 | 4.0 | 0.00 | 0.02 | 0.02 | 85 | 1016.8 |
| 20260905023038 | 58 | 177 | 2.0 | 4.0 | 0.00 | 0.02 | 0.02 | 81 | 1016.9 |
| 20260905021532 | 59 | 46 | 0.0 | 2.0 | 0.00 | 0.02 | 0.02 | 74 | 1016.9 |
| 20260905020111 | 60 | 42 | 2.0 | 5.0 | 0.00 | 0.02 | 0.02 | 73 | 1016.7 |
| 20260905014537 | 60 | 45 | 2.0 | 5.0 | 0.00 | 0.02 | 0.02 | 73 | 1016.5 |
| 20260905013034 | 61 | 45 | 1.0 | 4.0 | 0.00 | 0.02 | 0.02 | 71 | 1016.4 |
| 20260905011534 | 62 | 41 | 1.0 | 5.0 | 0.00 | 0.02 | 0.02 | 70 | 1016.3 |
| 20260905010110 | 62 | 26 | 2.0 | 5.0 | 0.00 | 0.02 | 0.02 | 69 | 1016.3 |
| 20260905004536 | 63 | 18 | 3.0 | 7.0 | 0.00 | 0.02 | 0.02 | 68 | 1016.2 |
| 20260905003153 | 63 | 358 | 2.0 | 4.0 | 0.00 | 0.02 | 0.02 | 69 | 1015.9 |
| 20260905001536 | 63 | 333 | 1.0 | 3.0 | 0.00 | 0.02 | 0.02 | 66 | 1015.9 |
| 20260905000035 | 63 | 180 | 0.0 | 0.0 | 0.00 | 0.02 | 0.02 | 66 | 1015.9 |
| 20260904234536 | 63 | 180 | 0.0 | 1.0 | 0.00 | 0.02 | 0.02 | 66 | 1015.9 |
| 20260904233035 | 62 | 126 | 0.0 | 3.0 | 0.00 | 0.02 | 0.02 | 70 | 1015.9 |
| 20260904230036 | 60 | 172 | 1.0 | 4.0 | 0.00 | 0.02 | 0.02 | 75 | 1015.9 |
| 20260904224537 | 60 | 220 | 2.0 | 6.0 | 0.00 | 0.02 | 0.02 | 72 | 1015.9 |
| 20260904223035 | 61 | 222 | 4.0 | 8.0 | 0.00 | 0.02 | 0.02 | 70 | 1015.8 |
| 20260904221537 | 62 | 246 | 1.0 | 5.0 | 0.00 | 0.02 | 0.02 | 66 | 1015.8 |
| 20260904220036 | 62 | 281 | 0.0 | 4.0 | 0.00 | 0.02 | 0.02 | 68 | 1015.7 |
| 20260904214535 | 61 | 254 | 2.0 | 4.0 | 0.00 | 0.02 | 0.02 | 68 | 1015.6 |
| 20260904213036 | 61 | 302 | 1.0 | 5.0 | 0.00 | 0.02 | 0.02 | 70 | 1015.5 |
| 20260904211535 | 61 | 305 | 2.0 | 5.0 | 0.00 | 0.02 | 0.02 | 71 | 1015.5 |
| 20260904210034 | 61 | 329 | 2.0 | 5.0 | 0.00 | 0.02 | 0.02 | 70 | 1015.4 |
| 20260904204536 | 61 | 312 | 1.0 | 5.0 | 0.00 | 0.02 | 0.02 | 71 | 1015.4 |